Overseas Houston — WWAA — position and weather

sailwx.info

Track history (hours):
 
Tides and Currents Weather Stations Pressure Air Temp Water Temp Dewpoint Dewpoint Depression Visibility Wind Speed Wind Dir Waves Ship Positions

Overseas Houston

Owner: ASC Leasing I, Inc., Kennett Square, PA. More information available from US FCC via Universal Licensing System and Coast Guard Vessel Documentation Center.

Last reported at 2017-May-30 07:01 UTC. Time now 2017-May-30 07:23 UTC.
Position N 51°02' E 001°37'.

Type: Tanker. MMSI: 367109000.

Date/timePositionNaut miles runAvg speedWind from/ knotsBaromVisibWave heightAir tempDewpointWater temp
2017-May-30 07:01N 51°02' E 001°37'713.1
2017-May-30 06:31N 50°57' E 001°30'713.1
2017-May-30 06:00N 50°51' E 001°25'913.2
2017-May-30 05:20N 50°42' E 001°21'5012.8
2017-May-30 01:26N 50°22' E 000°10'614.1
2017-May-30 01:00N 50°20' E 000°01'714.6
2017-May-30 00:30N 50°18' W 000°10'1615.4
2017-May-29 23:28N 50°14' W 000°34'1916.0
2017-May-29 22:18N 50°09' W 001°03'1515.9
2017-May-29 21:22N 50°05' W 001°25'615.2
2017-May-29 21:00N 50°03' W 001°33'6011.8
2017-May-29 15:55N 49°46' W 003°02'410.6
2017-May-29 15:30N 49°44' W 003°08'710.8
2017-May-29 14:50N 49°40' W 003°18'8712.1
2017-May-29 07:38N 48°56' W 005°13'214.3
2017-May-29 07:30N 48°55' W 005°16'714.6
2017-May-29 06:59N 48°51' W 005°26'59412.3
2017-May-27 06:34N 39°30' W 009°57'412.3
2017-May-27 06:15N 39°26' W 009°57'312.3
2017-May-27 06:00N 39°23' W 009°57'612.3
2017-May-27 05:30N 39°17' W 009°57'612.4
2017-May-27 05:00N 39°10' W 009°57'612.6
2017-May-27 04:30N 39°04' W 009°57'612.4
2017-May-27 04:00N 38°58' W 009°57'611.8
2017-May-27 03:30N 38°52' W 009°56'612.4
2017-May-27 03:00N 38°46' W 009°56'612.2
2017-May-27 02:30N 38°40' W 009°55'612.1
2017-May-27 02:00N 38°34' W 009°54'611.9
2017-May-27 01:30N 38°28' W 009°53'611.8
2017-May-27 01:00N 38°22' W 009°51'611.8
2017-May-27 00:30N 38°17' W 009°49'611.8
2017-May-27 00:00N 38°11' W 009°47'711.8
2017-May-26 23:24N 38°04' W 009°45'511.8
2017-May-26 22:59N 37°59' W 009°44'711.8
2017-May-26 22:22N 37°52' W 009°42'412.0
2017-May-26 22:00N 37°48' W 009°41'711.9
2017-May-26 21:28N 37°41' W 009°39'511.7
2017-May-26 21:00N 37°36' W 009°37'4011.6
2017-May-26 17:36N 36°58' W 009°26'3211.0
2017-May-26 14:40N 36°36' W 008°57'211.9
2017-May-26 14:30N 36°35' W 008°54'59 1.3
2017-May-24 18:37N 36°14' W 007°46'0 1.4
2017-May-24 18:25N 36°14' W 007°46'1 1.4
2017-May-24 17:58N 36°14' W 007°45'0 0.6
2017-May-24 17:12N 36°14' W 007°44'3 8.2
2017-May-24 16:49N 36°17' W 007°44'4 8.8
2017-May-24 16:23N 36°21' W 007°44'3 8.7
2017-May-24 16:00N 36°24' W 007°44'5 0.8
2017-May-24 09:33N 36°29' W 007°44'0 1.7
2017-May-24 09:30N 36°29' W 007°43'1 0.8
2017-May-24 08:36N 36°29' W 007°43'0 1.5
2017-May-24 08:30N 36°30' W 007°42'1 1.3
2017-May-24 08:00N 36°30' W 007°42'0 0.2
2017-May-24 07:28N 36°30' W 007°42'0 0.4
2017-May-24 06:51N 36°29' W 007°41'1 0.5
2017-May-24 05:28N 36°30' W 007°41'3 0.4
2017-May-23 20:23N 36°31' W 007°37'4 0.5
2017-May-23 11:08N 36°27' W 007°36'0 0.0
2017-May-23 07:24N 36°27' W 007°36'0 1.1
2017-May-23 07:00N 36°27' W 007°36'0 0.4
2017-May-23 06:15N 36°27' W 007°35'1 0.6
2017-May-23 04:15N 36°26' W 007°35'2 0.5
2017-May-23 00:02N 36°25' W 007°37'0 1.0
2017-May-22 23:52N 36°25' W 007°37'1 1.0
2017-May-22 22:58N 36°24' W 007°38'1 0.7
2017-May-22 21:33N 36°23' W 007°38'1 0.1
2017-May-22 06:42N 36°22' W 007°39'105 8.8
2017-May-21 18:47N 35°58' W 005°32'312.4
2017-May-21 18:30N 35°60' W 005°28'510.3
2017-May-21 18:00N 36°03' W 005°23'1 1.9
2017-May-21 17:30N 36°04' W 005°22'1 1.7
2017-May-21 17:00N 36°04' W 005°22'5 9.3
2017-May-21 16:30N 36°04' W 005°16'612.9
2017-May-21 16:00N 36°05' W 005°08'11911.9
2017-May-21 06:00N 36°18' W 002°42'8712.8 060 / 211021.210.8 20.015.5
2017-May-20 23:13N 36°36' W 000°57'613.0
2017-May-20 22:47N 36°37' W 000°50'312.8
2017-May-20 22:31N 36°37' W 000°46'612.8
2017-May-20 22:00N 36°38' W 000°38'812.9
2017-May-20 21:24N 36°40' W 000°28'512.6
2017-May-20 21:00N 36°41' W 000°22'612.4
2017-May-20 20:29N 36°42' W 000°14'612.3
2017-May-20 19:58N 36°42' W 000°06'612.4
2017-May-20 19:30N 36°44' E 000°01'612.6
2017-May-20 19:01N 36°45' E 000°09'612.6
2017-May-20 18:31N 36°46' E 000°16'612.5
2017-May-20 18:00N 36°47' E 000°24'612.5
2017-May-20 17:30N 36°48' E 000°32'612.5
2017-May-20 17:01N 36°48' E 000°39'612.2
2017-May-20 16:30N 36°50' E 000°47'612.3
2017-May-20 16:00N 36°51' E 000°55'812.5
2017-May-20 15:22N 36°52' E 001°04'512.9
2017-May-20 15:00N 36°53' E 001°10'1413.1
2017-May-20 13:55N 36°56' E 001°27'613.2
2017-May-20 13:30N 36°57' E 001°34'2313.4
2017-May-20 11:48N 36°60' E 002°03'413.3
2017-May-20 11:30N 37°00' E 002°07'713.2
2017-May-20 10:57N 37°01' E 002°17'1213.0
2017-May-20 10:01N 37°03' E 002°32'113.0
2017-May-20 09:59N 37°03' E 002°32'713.0
2017-May-20 09:26N 37°05' E 002°41'  
Track history (hours):
 
Tides and Currents Weather Stations Pressure Air Temp Water Temp Dewpoint Dewpoint Depression Visibility Wind Speed Wind Dir Waves Ship Positions

Overseas Houston

Owner: ASC Leasing I, Inc., Kennett Square, PA. More information available from US FCC via Universal Licensing System and Coast Guard Vessel Documentation Center.

Last reported at 2017-May-30 07:01 UTC. Time now 2017-May-30 07:23 UTC.
Position N 51°02' E 001°37'.

Type: Tanker. MMSI: 367109000.

Date/timePositionNaut miles runAvg speedWind from/ knotsBaromVisibWave heightAir tempDewpointWater temp
2017-May-30 07:01N 51°02' E 001°37'713.1
2017-May-30 06:31N 50°57' E 001°30'713.1
2017-May-30 06:00N 50°51' E 001°25'913.2
2017-May-30 05:20N 50°42' E 001°21'5012.8
2017-May-30 01:26N 50°22' E 000°10'614.1
2017-May-30 01:00N 50°20' E 000°01'714.6
2017-May-30 00:30N 50°18' W 000°10'1615.4
2017-May-29 23:28N 50°14' W 000°34'1916.0
2017-May-29 22:18N 50°09' W 001°03'1515.9
2017-May-29 21:22N 50°05' W 001°25'615.2
2017-May-29 21:00N 50°03' W 001°33'6011.8
2017-May-29 15:55N 49°46' W 003°02'410.6
2017-May-29 15:30N 49°44' W 003°08'710.8
2017-May-29 14:50N 49°40' W 003°18'8712.1
2017-May-29 07:38N 48°56' W 005°13'214.3
2017-May-29 07:30N 48°55' W 005°16'714.6
2017-May-29 06:59N 48°51' W 005°26'59412.3
2017-May-27 06:34N 39°30' W 009°57'412.3
2017-May-27 06:15N 39°26' W 009°57'312.3
2017-May-27 06:00N 39°23' W 009°57'612.3
2017-May-27 05:30N 39°17' W 009°57'612.4
2017-May-27 05:00N 39°10' W 009°57'612.6
2017-May-27 04:30N 39°04' W 009°57'612.4
2017-May-27 04:00N 38°58' W 009°57'611.8
2017-May-27 03:30N 38°52' W 009°56'612.4
2017-May-27 03:00N 38°46' W 009°56'612.2
2017-May-27 02:30N 38°40' W 009°55'612.1
2017-May-27 02:00N 38°34' W 009°54'611.9
2017-May-27 01:30N 38°28' W 009°53'611.8
2017-May-27 01:00N 38°22' W 009°51'611.8
2017-May-27 00:30N 38°17' W 009°49'611.8
2017-May-27 00:00N 38°11' W 009°47'711.8
2017-May-26 23:24N 38°04' W 009°45'511.8
2017-May-26 22:59N 37°59' W 009°44'711.8
2017-May-26 22:22N 37°52' W 009°42'412.0
2017-May-26 22:00N 37°48' W 009°41'711.9
2017-May-26 21:28N 37°41' W 009°39'511.7
2017-May-26 21:00N 37°36' W 009°37'4011.6
2017-May-26 17:36N 36°58' W 009°26'3211.0
2017-May-26 14:40N 36°36' W 008°57'211.9
2017-May-26 14:30N 36°35' W 008°54'59 1.3
2017-May-24 18:37N 36°14' W 007°46'0 1.4
2017-May-24 18:25N 36°14' W 007°46'1 1.4
2017-May-24 17:58N 36°14' W 007°45'0 0.6
2017-May-24 17:12N 36°14' W 007°44'3 8.2
2017-May-24 16:49N 36°17' W 007°44'4 8.8
2017-May-24 16:23N 36°21' W 007°44'3 8.7
2017-May-24 16:00N 36°24' W 007°44'5 0.8
2017-May-24 09:33N 36°29' W 007°44'0 1.7
2017-May-24 09:30N 36°29' W 007°43'1 0.8
2017-May-24 08:36N 36°29' W 007°43'0 1.5
2017-May-24 08:30N 36°30' W 007°42'1 1.3
2017-May-24 08:00N 36°30' W 007°42'0 0.2
2017-May-24 07:28N 36°30' W 007°42'0 0.4
2017-May-24 06:51N 36°29' W 007°41'1 0.5
2017-May-24 05:28N 36°30' W 007°41'3 0.4
2017-May-23 20:23N 36°31' W 007°37'4 0.5
2017-May-23 11:08N 36°27' W 007°36'0 0.0
2017-May-23 07:24N 36°27' W 007°36'0 1.1
2017-May-23 07:00N 36°27' W 007°36'0 0.4
2017-May-23 06:15N 36°27' W 007°35'1 0.6
2017-May-23 04:15N 36°26' W 007°35'2 0.5
2017-May-23 00:02N 36°25' W 007°37'0 1.0
2017-May-22 23:52N 36°25' W 007°37'1 1.0
2017-May-22 22:58N 36°24' W 007°38'1 0.7
2017-May-22 21:33N 36°23' W 007°38'1 0.1
2017-May-22 06:42N 36°22' W 007°39'105 8.8
2017-May-21 18:47N 35°58' W 005°32'312.4
2017-May-21 18:30N 35°60' W 005°28'510.3
2017-May-21 18:00N 36°03' W 005°23'1 1.9
2017-May-21 17:30N 36°04' W 005°22'1 1.7
2017-May-21 17:00N 36°04' W 005°22'5 9.3
2017-May-21 16:30N 36°04' W 005°16'612.9
2017-May-21 16:00N 36°05' W 005°08'11911.9
2017-May-21 06:00N 36°18' W 002°42'8712.8 060 / 211021.210.8 20.015.5
2017-May-20 23:13N 36°36' W 000°57'613.0
2017-May-20 22:47N 36°37' W 000°50'312.8
2017-May-20 22:31N 36°37' W 000°46'612.8
2017-May-20 22:00N 36°38' W 000°38'812.9
2017-May-20 21:24N 36°40' W 000°28'512.6
2017-May-20 21:00N 36°41' W 000°22'612.4
2017-May-20 20:29N 36°42' W 000°14'612.3
2017-May-20 19:58N 36°42' W 000°06'612.4
2017-May-20 19:30N 36°44' E 000°01'612.6
2017-May-20 19:01N 36°45' E 000°09'612.6
2017-May-20 18:31N 36°46' E 000°16'612.5
2017-May-20 18:00N 36°47' E 000°24'612.5
2017-May-20 17:30N 36°48' E 000°32'612.5
2017-May-20 17:01N 36°48' E 000°39'612.2
2017-May-20 16:30N 36°50' E 000°47'612.3
2017-May-20 16:00N 36°51' E 000°55'812.5
2017-May-20 15:22N 36°52' E 001°04'512.9
2017-May-20 15:00N 36°53' E 001°10'1413.1
2017-May-20 13:55N 36°56' E 001°27'613.2
2017-May-20 13:30N 36°57' E 001°34'2313.4
2017-May-20 11:48N 36°60' E 002°03'413.3
2017-May-20 11:30N 37°00' E 002°07'713.2
2017-May-20 10:57N 37°01' E 002°17'1213.0
2017-May-20 10:01N 37°03' E 002°32'113.0
2017-May-20 09:59N 37°03' E 002°32'713.0
2017-May-20 09:26N 37°05' E 002°41'  

Dump ship's entire track history